Angel Fire, New Mexico
Current Conditions -  °F | °C
As of 5:55 AM on Tuesday 21 Oct 2014 (Local Time) from KAXX Reporting Station
Moderate Fog Moderate Fog  
Wind Chill: 28°   Ceiling: 100
Heat Index: 28°   Visibility: 0.25mi
Dew Point: 26°   Wind: 0mph
Humidity: 92%   Direction: NA
Pressure: 30.3"   Gusts: NA
Location:  36.39°N, 105.29°W
Report Text: KAXX 211155Z AUTO 00000KT 1/4SM FZFG OVC001 M02/M03 A3030 RMK AO2 T10221034 10022 21026
Loading
Personal Weather Stations






























Interactive Weather Map
Tropical Storm Tracking
New forecast layout! Learn more

10-Day Weather Forecast

Advertisements
Track Severe Weather on mobile